createdAt,value
2023-05-17T00:00:13.986Z,7.73
2023-05-17T00:01:13.950Z,7.73
2023-05-17T00:02:13.933Z,7.73
2023-05-17T00:03:13.961Z,7.71
2023-05-17T00:04:13.966Z,7.71
2023-05-17T00:05:13.906Z,7.70
2023-05-17T00:06:13.975Z,7.70
2023-05-17T00:07:13.951Z,7.67
2023-05-17T00:08:13.872Z,7.66
2023-05-17T00:09:13.902Z,7.63
2023-05-17T00:10:13.866Z,7.62
2023-05-17T00:11:13.867Z,7.60
2023-05-17T00:12:13.875Z,7.57
2023-05-17T00:13:13.850Z,7.58
2023-05-17T00:14:13.879Z,7.55
2023-05-17T00:15:13.826Z,7.55
2023-05-17T00:16:13.800Z,7.54
2023-05-17T00:17:13.783Z,7.52
2023-05-17T00:18:13.833Z,7.54
2023-05-17T00:19:13.982Z,7.51
2023-05-17T00:20:13.759Z,7.51
2023-05-17T00:21:13.773Z,7.50
2023-05-17T00:22:13.737Z,7.47
2023-05-17T00:23:13.762Z,7.45
2023-05-17T00:24:13.722Z,7.47
2023-05-17T00:25:13.706Z,7.47
2023-05-17T00:26:13.710Z,7.45
2023-05-17T00:27:13.760Z,7.47
2023-05-17T00:28:13.689Z,7.47
2023-05-17T00:29:13.664Z,7.48
2023-05-17T00:30:13.689Z,7.50
2023-05-17T00:31:13.679Z,7.50
2023-05-17T00:32:13.662Z,7.48
2023-05-17T00:33:13.633Z,7.48
2023-05-17T00:34:13.682Z,7.48
2023-05-17T00:35:13.701Z,7.48
2023-05-17T00:36:13.620Z,7.45
2023-05-17T00:37:13.593Z,7.47
2023-05-17T00:38:13.598Z,7.47
2023-05-17T00:39:14.234Z,7.48
2023-05-17T00:40:13.572Z,7.45
2023-05-17T00:41:13.578Z,7.47
2023-05-17T00:42:13.570Z,7.47
2023-05-17T00:43:13.533Z,7.45
2023-05-17T00:44:13.533Z,7.45
2023-05-17T00:45:13.511Z,7.44
2023-05-17T00:46:13.535Z,7.42
2023-05-17T00:47:13.546Z,7.41
2023-05-17T00:48:13.577Z,7.39
2023-05-17T00:49:13.505Z,7.39
2023-05-17T00:50:13.480Z,7.36
2023-05-17T00:51:13.466Z,7.34
2023-05-17T00:52:13.450Z,7.33
2023-05-17T00:53:13.437Z,7.33
2023-05-17T00:54:13.467Z,7.32
2023-05-17T00:55:13.432Z,7.29
2023-05-17T00:56:13.402Z,7.29
2023-05-17T00:57:13.396Z,7.27
2023-05-17T00:58:13.405Z,7.24
2023-05-17T00:59:13.372Z,7.24
2023-05-17T01:00:13.391Z,7.21
2023-05-17T01:01:13.361Z,7.23
2023-05-17T01:02:13.456Z,7.23
2023-05-17T01:03:13.462Z,7.19
2023-05-17T01:04:13.447Z,7.18
2023-05-17T01:05:13.320Z,7.18
2023-05-17T01:06:13.324Z,7.16
2023-05-17T01:07:13.308Z,7.16
2023-05-17T01:08:13.330Z,7.12
2023-05-17T01:09:13.287Z,7.12
2023-05-17T01:10:13.274Z,7.14
2023-05-17T01:11:13.294Z,7.14
2023-05-17T01:12:13.262Z,7.14
2023-05-17T01:13:13.231Z,7.14
2023-05-17T01:14:13.248Z,7.14
2023-05-17T01:15:13.218Z,7.14
2023-05-17T01:16:13.267Z,7.12
2023-05-17T01:17:13.221Z,7.15
2023-05-17T01:18:13.253Z,7.15
2023-05-17T01:19:13.230Z,7.16
2023-05-17T01:20:13.260Z,7.18
2023-05-17T01:21:13.172Z,7.16
2023-05-17T01:22:13.180Z,7.16
2023-05-17T01:23:13.159Z,7.18
2023-05-17T01:24:13.127Z,7.19
2023-05-17T01:25:13.121Z,7.21
2023-05-17T01:26:13.111Z,7.21
2023-05-17T01:27:13.131Z,7.24
2023-05-17T01:28:13.083Z,7.23
2023-05-17T01:29:13.074Z,7.26
2023-05-17T01:30:13.072Z,7.27
2023-05-17T01:31:13.079Z,7.27
2023-05-17T01:32:13.045Z,7.29
2023-05-17T01:33:13.168Z,7.27
2023-05-17T01:34:13.031Z,7.27
2023-05-17T01:35:13.013Z,7.29
2023-05-17T01:36:13.024Z,7.29
2023-05-17T01:37:12.995Z,7.29
2023-05-17T01:38:13.011Z,7.29
2023-05-17T01:39:12.996Z,7.30
2023-05-17T01:40:12.990Z,7.30
2023-05-17T01:41:12.965Z,7.34
2023-05-17T01:42:12.972Z,7.34
2023-05-17T01:43:12.964Z,7.34
2023-05-17T01:44:12.958Z,7.33
2023-05-17T01:45:12.987Z,7.33
2023-05-17T01:46:12.915Z,7.33
2023-05-17T01:47:12.914Z,7.33
2023-05-17T01:48:12.938Z,7.33
2023-05-17T01:49:12.905Z,7.32
2023-05-17T01:50:12.893Z,7.32
2023-05-17T01:51:12.864Z,7.30
2023-05-17T01:52:12.863Z,7.30
2023-05-17T01:53:12.846Z,7.27
2023-05-17T01:54:12.877Z,7.29
2023-05-17T01:55:12.825Z,7.27
2023-05-17T01:56:13.208Z,7.27
2023-05-17T01:57:12.806Z,7.26
2023-05-17T01:58:12.789Z,7.24
2023-05-17T01:59:12.780Z,7.24
2023-05-17T02:00:12.792Z,7.23
2023-05-17T02:01:12.763Z,7.19
2023-05-17T02:02:12.766Z,7.19
2023-05-17T02:03:12.744Z,7.16
2023-05-17T02:04:12.809Z,7.15
2023-05-17T02:05:12.774Z,7.15
2023-05-17T02:06:12.717Z,7.12
2023-05-17T02:07:12.761Z,7.11
2023-05-17T02:08:12.691Z,7.09
2023-05-17T02:09:12.686Z,7.08
2023-05-17T02:10:12.686Z,7.08
2023-05-17T02:11:12.674Z,7.08
2023-05-17T02:12:12.650Z,7.07
2023-05-17T02:13:12.668Z,7.04
2023-05-17T02:14:12.652Z,7.01
2023-05-17T02:15:12.619Z,6.99
2023-05-17T02:16:12.623Z,6.96
2023-05-17T02:17:12.632Z,6.93
2023-05-17T02:18:12.681Z,6.89
2023-05-17T02:19:12.670Z,6.83
2023-05-17T02:20:12.596Z,6.82
2023-05-17T02:21:12.588Z,6.79
2023-05-17T02:22:12.556Z,6.76
2023-05-17T02:23:12.546Z,6.73
2023-05-17T02:24:12.590Z,6.73
2023-05-17T02:25:12.528Z,6.72
2023-05-17T02:26:12.521Z,6.69
2023-05-17T02:27:12.524Z,6.72
2023-05-17T02:28:12.492Z,6.72
2023-05-17T02:29:12.546Z,6.72
2023-05-17T02:30:12.513Z,6.71
2023-05-17T02:31:12.471Z,6.72
2023-05-17T02:32:12.461Z,6.69
2023-05-17T02:33:12.538Z,6.71
2023-05-17T02:34:12.441Z,6.69
2023-05-17T02:35:12.431Z,6.69
2023-05-17T02:36:12.440Z,6.72
2023-05-17T02:37:12.417Z,6.72
2023-05-17T02:38:12.400Z,6.73
2023-05-17T02:39:12.440Z,6.73
2023-05-17T02:40:12.394Z,6.78
2023-05-17T02:41:12.365Z,6.79
2023-05-17T02:42:12.403Z,6.81
2023-05-17T02:43:12.345Z,6.82
2023-05-17T02:44:12.352Z,6.83
2023-05-17T02:45:12.348Z,6.87
2023-05-17T02:46:12.377Z,6.87
2023-05-17T02:47:12.352Z,6.89
2023-05-17T02:48:12.366Z,6.90
2023-05-17T02:49:12.334Z,6.93
2023-05-17T02:50:12.292Z,6.93
2023-05-17T02:51:12.271Z,6.97
2023-05-17T02:52:12.255Z,6.99
2023-05-17T02:53:12.293Z,7.01
2023-05-17T02:54:12.243Z,7.07
2023-05-17T02:55:12.235Z,7.08
2023-05-17T02:56:12.241Z,7.09
2023-05-17T02:57:12.225Z,7.08
2023-05-17T02:58:12.225Z,7.09
2023-05-17T02:59:12.193Z,7.09
2023-05-17T03:00:12.186Z,7.09
2023-05-17T03:01:12.171Z,7.11
2023-05-17T03:02:12.193Z,7.09
2023-05-17T03:03:12.283Z,7.09
2023-05-17T03:04:12.207Z,7.11
2023-05-17T03:05:12.160Z,7.09
2023-05-17T03:06:12.155Z,7.09
2023-05-17T03:07:12.117Z,7.07
2023-05-17T03:08:12.083Z,7.07
2023-05-17T03:09:12.113Z,7.05
2023-05-17T03:10:12.105Z,7.05
2023-05-17T03:11:12.094Z,7.05
2023-05-17T03:12:12.065Z,7.05
2023-05-17T03:13:12.062Z,7.07
2023-05-17T03:14:12.006Z,7.08
2023-05-17T03:15:12.030Z,7.07
2023-05-17T03:16:11.990Z,7.08
2023-05-17T03:17:12.020Z,7.11
2023-05-17T03:18:12.089Z,7.12
2023-05-17T03:19:12.291Z,7.14
2023-05-17T03:20:12.032Z,7.15
2023-05-17T03:21:12.012Z,7.16
2023-05-17T03:22:12.003Z,7.18
2023-05-17T03:23:11.970Z,7.21
2023-05-17T03:24:11.913Z,7.23
2023-05-17T03:25:11.939Z,7.24
2023-05-17T03:26:11.957Z,7.24
2023-05-17T03:27:11.914Z,7.27
2023-05-17T03:28:11.869Z,7.27
2023-05-17T03:29:11.898Z,7.29
2023-05-17T03:30:11.872Z,7.29
2023-05-17T03:31:11.852Z,7.27
2023-05-17T03:32:11.832Z,7.29
2023-05-17T03:33:11.897Z,7.29
2023-05-17T03:34:11.877Z,7.27
2023-05-17T03:35:11.793Z,7.27
2023-05-17T03:36:11.818Z,7.27
2023-05-17T03:37:11.771Z,7.29
2023-05-17T03:38:11.757Z,7.27
2023-05-17T03:39:11.760Z,7.29
2023-05-17T03:40:11.768Z,7.29
2023-05-17T03:41:11.756Z,7.27
2023-05-17T03:42:11.749Z,7.29
2023-05-17T03:43:11.721Z,7.29
2023-05-17T03:44:11.703Z,7.27
2023-05-17T03:45:11.709Z,7.26
2023-05-17T03:46:11.697Z,7.24
2023-05-17T03:47:11.699Z,7.23
2023-05-17T03:48:11.674Z,7.19
2023-05-17T03:49:11.793Z,7.18
2023-05-17T03:50:11.661Z,7.18
2023-05-17T03:51:11.658Z,7.16
2023-05-17T03:52:11.705Z,7.15
2023-05-17T03:53:11.608Z,7.16
2023-05-17T03:54:11.597Z,7.15
2023-05-17T03:55:11.602Z,7.15
2023-05-17T03:56:11.588Z,7.14
2023-05-17T03:57:11.579Z,7.15
2023-05-17T03:58:11.595Z,7.14
2023-05-17T03:59:11.596Z,7.14
2023-05-17T04:00:11.568Z,7.15
2023-05-17T04:01:11.538Z,7.15
2023-05-17T04:02:11.551Z,7.12
2023-05-17T04:03:11.540Z,7.11
2023-05-17T04:04:11.505Z,7.11
2023-05-17T04:05:11.534Z,7.08
2023-05-17T04:06:11.526Z,7.08
2023-05-17T04:07:11.496Z,7.09
2023-05-17T04:08:11.544Z,7.08
2023-05-17T04:09:11.487Z,7.09
2023-05-17T04:10:11.453Z,7.08
2023-05-17T04:11:11.456Z,7.08
2023-05-17T04:12:11.435Z,7.08
2023-05-17T04:13:11.439Z,7.07
2023-05-17T04:14:11.427Z,7.08
2023-05-17T04:15:11.404Z,7.08
2023-05-17T04:16:11.390Z,7.09
2023-05-17T04:17:11.397Z,7.09
2023-05-17T04:18:11.440Z,7.09
2023-05-17T04:19:11.541Z,7.09
2023-05-17T04:20:11.394Z,7.11
2023-05-17T04:21:11.408Z,7.11
2023-05-17T04:22:11.344Z,7.11
2023-05-17T04:23:11.355Z,7.14
2023-05-17T04:24:11.344Z,7.14
2023-05-17T04:25:11.333Z,7.15
2023-05-17T04:26:11.306Z,7.16
2023-05-17T04:27:12.133Z,7.16
2023-05-17T04:28:11.291Z,7.16
2023-05-17T04:29:11.368Z,7.18
2023-05-17T04:30:11.291Z,7.18
2023-05-17T04:31:11.271Z,7.19
2023-05-17T04:32:11.302Z,7.19
2023-05-17T04:33:13.489Z,7.24
2023-05-17T04:34:11.346Z,7.21
2023-05-17T04:35:11.227Z,7.23
2023-05-17T04:36:11.241Z,7.26
2023-05-17T04:37:11.483Z,7.24
2023-05-17T04:38:11.247Z,7.26
2023-05-17T04:39:11.200Z,7.27
2023-05-17T04:40:11.173Z,7.29
2023-05-17T04:41:11.157Z,7.29
2023-05-17T04:42:11.172Z,7.29
2023-05-17T04:43:11.187Z,7.30
2023-05-17T04:44:11.154Z,7.30
2023-05-17T04:45:12.459Z,7.33
2023-05-17T04:46:11.155Z,7.33
2023-05-17T04:47:11.125Z,7.33
2023-05-17T04:48:11.193Z,7.33
2023-05-17T04:49:11.113Z,7.33
2023-05-17T04:50:11.094Z,7.33
2023-05-17T04:51:11.098Z,7.36
2023-05-17T04:52:11.126Z,7.36
2023-05-17T04:53:11.064Z,7.36
2023-05-17T04:54:11.072Z,7.36
2023-05-17T04:55:11.063Z,7.34
2023-05-17T04:56:11.028Z,7.34
2023-05-17T04:57:11.015Z,7.34
2023-05-17T04:58:11.063Z,7.36
2023-05-17T04:59:11.004Z,7.36
2023-05-17T05:00:10.996Z,7.37
2023-05-17T05:01:10.999Z,7.41
2023-05-17T05:02:10.985Z,7.42
2023-05-17T05:03:11.098Z,7.45
2023-05-17T05:04:11.075Z,7.48
2023-05-17T05:05:11.052Z,7.48
2023-05-17T05:06:11.060Z,7.48
2023-05-17T05:07:10.923Z,7.50
2023-05-17T05:08:10.953Z,7.50
2023-05-17T05:09:10.901Z,7.52
2023-05-17T05:10:10.910Z,7.55
2023-05-17T05:11:10.914Z,7.57
2023-05-17T05:12:10.883Z,7.58
2023-05-17T05:13:10.851Z,7.58
2023-05-17T05:14:10.982Z,7.60
2023-05-17T05:15:10.858Z,7.58
2023-05-17T05:16:10.831Z,7.62
2023-05-17T05:17:10.813Z,7.63
2023-05-17T05:18:10.988Z,7.66
2023-05-17T05:19:11.111Z,7.67
2023-05-17T05:20:10.785Z,7.71
2023-05-17T05:21:10.772Z,7.77
2023-05-17T05:22:10.769Z,7.84
2023-05-17T05:23:10.826Z,7.89
2023-05-17T05:24:10.764Z,7.94
2023-05-17T05:25:10.726Z,8.00
2023-05-17T05:26:10.736Z,8.03
2023-05-17T05:27:10.734Z,8.03
2023-05-17T05:28:10.716Z,8.09
2023-05-17T05:29:10.765Z,8.13
2023-05-17T05:30:11.032Z,8.14
2023-05-17T05:31:10.702Z,8.14
2023-05-17T05:32:10.673Z,8.14
2023-05-17T05:33:10.826Z,8.17
2023-05-17T05:34:10.816Z,8.17
2023-05-17T05:35:10.657Z,8.17
2023-05-17T05:36:10.629Z,8.17
2023-05-17T05:37:10.642Z,8.13
2023-05-17T05:38:10.618Z,8.12
2023-05-17T05:39:10.592Z,8.10
2023-05-17T05:40:10.634Z,8.12
2023-05-17T05:41:10.722Z,8.10
2023-05-17T05:42:10.643Z,8.12
2023-05-17T05:43:10.606Z,8.10
2023-05-17T05:44:10.554Z,8.06
2023-05-17T05:45:10.562Z,8.03
2023-05-17T05:46:10.533Z,8.00
2023-05-17T05:47:10.570Z,7.99
2023-05-17T05:48:10.548Z,7.96
2023-05-17T05:49:10.549Z,7.99
2023-05-17T05:50:10.476Z,7.99
2023-05-17T05:51:10.500Z,7.96
2023-05-17T05:52:10.482Z,7.99
2023-05-17T05:53:18.845Z,7.96
2023-05-17T05:54:11.175Z,7.99
2023-05-17T05:55:10.458Z,7.99
2023-05-17T05:56:10.438Z,8.02
2023-05-17T05:57:10.448Z,8.02
2023-05-17T05:58:10.427Z,8.04
2023-05-17T05:59:10.436Z,8.07
2023-05-17T06:00:10.406Z,8.22
2023-05-17T06:01:10.391Z,8.20
2023-05-17T06:02:10.398Z,8.14
2023-05-17T06:03:10.432Z,8.12
2023-05-17T06:04:10.350Z,8.10
2023-05-17T06:05:10.366Z,8.10
2023-05-17T06:06:10.402Z,8.09
2023-05-17T06:07:10.445Z,8.07
2023-05-17T06:08:10.316Z,8.07
2023-05-17T06:09:10.330Z,8.09
2023-05-17T06:10:10.352Z,8.09
2023-05-17T06:11:10.288Z,8.09
2023-05-17T06:12:10.285Z,8.04
2023-05-17T06:13:10.279Z,8.04
2023-05-17T06:14:10.333Z,8.04
2023-05-17T06:15:10.444Z,8.04
2023-05-17T06:16:10.234Z,8.04
2023-05-17T06:17:10.229Z,8.04
2023-05-17T06:18:10.277Z,8.02
2023-05-17T06:19:10.245Z,8.02
2023-05-17T06:20:10.205Z,8.02
2023-05-17T06:21:10.210Z,8.02
2023-05-17T06:22:10.203Z,8.03
2023-05-17T06:23:10.177Z,8.03
2023-05-17T06:24:10.150Z,8.06
2023-05-17T06:25:10.149Z,8.04
2023-05-17T06:26:10.125Z,8.04
2023-05-17T06:27:10.112Z,7.99
2023-05-17T06:28:10.126Z,7.95
2023-05-17T06:29:10.104Z,7.91
2023-05-17T06:30:10.086Z,7.86
2023-05-17T06:31:10.135Z,7.84
2023-05-17T06:32:10.095Z,7.82
2023-05-17T06:33:10.281Z,7.82
2023-05-17T06:34:10.134Z,7.82
2023-05-17T06:35:10.084Z,7.82
2023-05-17T06:36:10.028Z,7.77
2023-05-17T06:37:10.008Z,7.79
2023-05-17T06:38:10.024Z,7.81
2023-05-17T06:39:10.022Z,7.84
2023-05-17T06:40:16.143Z,7.84
2023-05-17T06:41:09.978Z,7.84
2023-05-17T06:42:10.012Z,7.81
2023-05-17T06:43:09.998Z,7.81
2023-05-17T06:44:09.963Z,7.82
2023-05-17T06:45:09.940Z,7.82
2023-05-17T06:46:09.955Z,7.85
2023-05-17T06:47:09.953Z,7.88
2023-05-17T06:48:10.063Z,7.86
2023-05-17T06:49:09.965Z,7.89
2023-05-17T06:50:09.914Z,7.91
2023-05-17T06:51:09.982Z,7.91
2023-05-17T06:52:09.929Z,7.95
2023-05-17T06:53:09.953Z,7.95
2023-05-17T06:54:09.873Z,7.99
2023-05-17T06:55:09.833Z,8.03
2023-05-17T06:56:09.846Z,8.06
2023-05-17T06:57:09.864Z,8.06
2023-05-17T06:58:09.805Z,8.10
2023-05-17T06:59:09.774Z,8.13
2023-05-17T07:00:09.783Z,8.32
2023-05-17T07:01:09.762Z,8.55
2023-05-17T07:02:09.778Z,8.57
2023-05-17T07:03:09.869Z,8.57
2023-05-17T07:04:09.818Z,8.54
2023-05-17T07:05:09.756Z,8.52
2023-05-17T07:06:09.716Z,8.49
2023-05-17T07:07:09.775Z,8.46
2023-05-17T07:08:09.776Z,8.40
2023-05-17T07:09:10.172Z,8.36
2023-05-17T07:10:09.701Z,8.36
2023-05-17T07:11:09.706Z,8.37
2023-05-17T07:12:09.663Z,8.43
2023-05-17T07:13:09.620Z,8.58
2023-05-17T07:14:09.686Z,8.89
2023-05-17T07:15:09.619Z,9.01
2023-05-17T07:16:10.179Z,9.06
2023-05-17T07:17:09.590Z,9.19
2023-05-17T07:18:09.671Z,9.31
2023-05-17T07:19:09.702Z,9.30
2023-05-17T07:20:09.710Z,9.35
2023-05-17T07:21:09.566Z,9.34
2023-05-17T07:22:09.562Z,9.24
2023-05-17T07:23:09.552Z,9.13
2023-05-17T07:24:09.533Z,8.96
2023-05-17T07:25:09.525Z,8.86
2023-05-17T07:26:09.486Z,8.80
2023-05-17T07:27:09.496Z,8.79
2023-05-17T07:28:09.491Z,8.80
2023-05-17T07:29:09.503Z,8.85
2023-05-17T07:30:09.460Z,8.82
2023-05-17T07:31:09.579Z,8.80
2023-05-17T07:32:09.450Z,8.82
2023-05-17T07:33:09.489Z,8.85
2023-05-17T07:34:09.427Z,8.86
2023-05-17T07:35:09.403Z,8.85
2023-05-17T07:36:09.478Z,8.85
2023-05-17T07:37:09.461Z,8.86
2023-05-17T07:38:09.382Z,8.86
2023-05-17T07:39:09.390Z,8.88
2023-05-17T07:40:09.439Z,8.88
2023-05-17T07:41:09.373Z,8.85
2023-05-17T07:42:09.335Z,8.82
2023-05-17T07:43:09.331Z,8.79
2023-05-17T07:44:09.306Z,8.76
2023-05-17T07:45:09.632Z,8.73
2023-05-17T07:46:09.322Z,8.76
2023-05-17T07:47:09.487Z,8.75
2023-05-17T07:48:09.370Z,8.73
2023-05-17T07:49:09.378Z,8.65
2023-05-17T07:50:09.266Z,8.58
2023-05-17T07:51:09.250Z,8.52
2023-05-17T07:52:09.261Z,8.46
2023-05-17T07:53:09.248Z,8.37
2023-05-17T07:54:09.239Z,8.36
2023-05-17T07:55:09.220Z,8.32
2023-05-17T07:56:09.215Z,8.29
2023-05-17T07:57:09.179Z,8.31
2023-05-17T07:58:09.239Z,8.31
2023-05-17T07:59:09.203Z,8.34
2023-05-17T08:00:10.174Z,8.39
2023-05-17T08:01:09.167Z,8.42
2023-05-17T08:02:09.135Z,8.46
2023-05-17T08:03:09.234Z,8.47
2023-05-17T08:04:09.218Z,8.50
2023-05-17T08:05:09.087Z,8.49
2023-05-17T08:06:09.157Z,8.54
2023-05-17T08:07:09.162Z,8.55
2023-05-17T08:08:09.084Z,8.58
2023-05-17T08:09:09.042Z,8.52
2023-05-17T08:10:09.737Z,8.49
2023-05-17T08:11:09.072Z,8.45
2023-05-17T08:12:09.022Z,8.43
2023-05-17T08:13:09.062Z,8.40
2023-05-17T08:14:09.053Z,8.42
2023-05-17T08:15:09.002Z,8.46
2023-05-17T08:16:14.239Z,8.45
2023-05-17T08:17:08.994Z,8.54
2023-05-17T08:18:09.046Z,8.61
2023-05-17T08:19:09.130Z,8.64
2023-05-17T08:20:09.909Z,8.71
2023-05-17T08:21:09.019Z,8.75
2023-05-17T08:22:08.946Z,8.78
2023-05-17T08:23:09.252Z,8.80
2023-05-17T08:24:08.995Z,8.83
2023-05-17T08:25:08.897Z,8.85
2023-05-17T08:26:08.915Z,8.88
2023-05-17T08:27:08.879Z,8.85
2023-05-17T08:28:08.846Z,8.85
2023-05-17T08:29:08.870Z,8.88
2023-05-17T08:30:11.925Z,8.89
2023-05-17T08:31:08.827Z,8.94
2023-05-17T08:32:08.866Z,8.94
2023-05-17T08:33:08.928Z,8.96
2023-05-17T08:34:08.938Z,8.93
2023-05-17T08:35:08.795Z,8.94
2023-05-17T08:36:08.783Z,8.96
2023-05-17T08:37:09.325Z,8.96
2023-05-17T08:38:08.793Z,8.96
2023-05-17T08:39:08.796Z,8.93
2023-05-17T08:40:08.810Z,8.89
2023-05-17T08:41:08.725Z,8.86
2023-05-17T08:42:08.706Z,8.82
2023-05-17T08:43:08.735Z,8.78
2023-05-17T08:44:08.692Z,8.76
2023-05-17T08:45:08.666Z,8.75
2023-05-17T08:46:08.675Z,8.75
2023-05-17T08:47:08.665Z,8.75
2023-05-17T08:48:08.745Z,8.76
2023-05-17T08:49:08.699Z,8.76
2023-05-17T08:50:08.637Z,8.75
2023-05-17T08:51:08.610Z,8.73
2023-05-17T08:52:08.617Z,8.73
2023-05-17T08:53:08.603Z,8.73
2023-05-17T08:54:08.610Z,8.75
2023-05-17T08:55:08.584Z,8.79
2023-05-17T08:56:08.588Z,8.83
2023-05-17T08:57:08.609Z,8.91
2023-05-17T08:58:08.543Z,9.01
2023-05-17T08:59:08.539Z,9.06
2023-05-17T09:00:08.548Z,9.13
2023-05-17T09:01:08.515Z,9.22
2023-05-17T09:02:08.500Z,9.26
2023-05-17T09:03:08.607Z,9.32
2023-05-17T09:04:08.489Z,9.34
2023-05-17T09:05:08.595Z,9.35
2023-05-17T09:06:08.470Z,9.34
2023-05-17T09:07:08.492Z,9.40
2023-05-17T09:08:08.429Z,9.41
2023-05-17T09:09:08.434Z,9.45
2023-05-17T09:10:08.408Z,9.50
2023-05-17T09:11:08.409Z,9.56
2023-05-17T09:12:08.376Z,9.65
2023-05-17T09:13:08.391Z,9.71
2023-05-17T09:14:08.363Z,9.75
2023-05-17T09:15:08.472Z,9.85
2023-05-17T09:16:08.360Z,9.89
2023-05-17T09:17:08.371Z,9.93
2023-05-17T09:18:08.399Z,9.92
2023-05-17T09:19:08.437Z,9.92
2023-05-17T09:20:08.378Z,9.92
2023-05-17T09:21:08.280Z,9.93
2023-05-17T09:22:08.295Z,10.02
2023-05-17T09:23:08.293Z,10.02
2023-05-17T09:24:08.690Z,9.99
2023-05-17T09:25:08.254Z,10.01
2023-05-17T09:26:08.277Z,9.99
2023-05-17T09:27:08.219Z,10.02
2023-05-17T09:28:08.221Z,10.04
2023-05-17T09:29:08.277Z,10.02
2023-05-17T09:30:15.718Z,9.96
2023-05-17T09:31:08.182Z,9.98
2023-05-17T09:32:08.210Z,9.95
2023-05-17T09:33:08.163Z,9.89
2023-05-17T09:34:15.771Z,9.83
2023-05-17T09:35:08.146Z,9.74
2023-05-17T09:36:14.668Z,9.71
2023-05-17T09:37:08.131Z,9.68
2023-05-17T09:38:08.100Z,9.58
2023-05-17T09:39:08.199Z,9.48
2023-05-17T09:40:08.256Z,9.38
2023-05-17T09:41:08.076Z,9.35
2023-05-17T09:42:08.052Z,9.35
2023-05-17T09:43:08.060Z,9.35
2023-05-17T09:44:08.038Z,9.34
2023-05-17T09:45:08.063Z,9.32
2023-05-17T09:46:08.029Z,9.31
2023-05-17T09:47:08.008Z,9.34
2023-05-17T09:48:08.080Z,9.38
2023-05-17T09:49:08.008Z,9.48
2023-05-17T09:50:07.986Z,9.53
2023-05-17T09:51:08.004Z,9.58
2023-05-17T09:52:07.974Z,9.62
2023-05-17T09:53:07.941Z,9.65
2023-05-17T09:54:07.938Z,9.67
2023-05-17T09:55:07.927Z,9.71
2023-05-17T09:56:07.940Z,9.74
2023-05-17T09:57:07.913Z,9.77
2023-05-17T09:58:07.890Z,9.73
2023-05-17T09:59:07.898Z,9.71
2023-05-17T10:00:07.997Z,9.68
2023-05-17T10:01:07.883Z,9.60
2023-05-17T10:02:07.870Z,9.52
2023-05-17T10:03:08.133Z,9.49
2023-05-17T10:04:07.889Z,9.48
2023-05-17T10:05:07.975Z,9.44
2023-05-17T10:06:07.826Z,9.45
2023-05-17T10:07:07.818Z,9.49
2023-05-17T10:08:07.790Z,9.48
2023-05-17T10:09:07.831Z,9.50
2023-05-17T10:10:07.786Z,9.52
2023-05-17T10:11:15.789Z,9.50
2023-05-17T10:12:07.764Z,9.49
2023-05-17T10:13:07.767Z,9.53
2023-05-17T10:14:07.731Z,9.59
2023-05-17T10:15:07.928Z,9.65
2023-05-17T10:16:07.716Z,9.74
2023-05-17T10:17:07.741Z,9.78
2023-05-17T10:18:07.784Z,9.86
2023-05-17T10:19:07.833Z,9.91
2023-05-17T10:20:07.812Z,9.92
2023-05-17T10:21:07.657Z,9.91
2023-05-17T10:22:21.552Z,9.88
2023-05-17T10:23:07.636Z,9.88
2023-05-17T10:24:07.628Z,9.91
2023-05-17T10:25:07.674Z,9.93
2023-05-17T10:26:07.596Z,9.96
2023-05-17T10:27:07.612Z,9.95
2023-05-17T10:28:07.586Z,9.95
2023-05-17T10:29:07.602Z,9.92
2023-05-17T10:30:07.594Z,9.92
2023-05-17T10:31:07.557Z,9.91
2023-05-17T10:32:07.564Z,9.85
2023-05-17T10:33:07.753Z,9.78
2023-05-17T10:34:07.541Z,9.73
2023-05-17T10:35:11.828Z,9.70
2023-05-17T10:36:07.495Z,9.67
2023-05-17T10:37:07.508Z,9.68
2023-05-17T10:38:07.482Z,9.70
2023-05-17T10:39:07.456Z,9.73
2023-05-17T10:40:07.452Z,9.85
2023-05-17T10:41:07.489Z,9.99
2023-05-17T10:43:07.441Z,10.22
2023-05-17T10:44:07.404Z,10.31
2023-05-17T10:45:07.533Z,10.32
2023-05-17T10:46:07.379Z,10.38
2023-05-17T10:47:07.412Z,10.44
2023-05-17T10:48:07.408Z,10.47
2023-05-17T10:49:07.436Z,10.49
2023-05-17T10:50:07.333Z,10.51
2023-05-17T10:51:07.338Z,10.54
2023-05-17T10:52:07.347Z,10.58
2023-05-17T10:53:07.311Z,10.63
2023-05-17T10:54:07.299Z,10.69
2023-05-17T10:55:07.300Z,10.70
2023-05-17T10:56:07.283Z,10.70
2023-05-17T10:57:08.939Z,10.70
2023-05-17T10:58:07.295Z,10.66
2023-05-17T10:59:07.246Z,10.60
2023-05-17T11:00:07.247Z,10.57
2023-05-17T11:01:07.242Z,10.52
2023-05-17T11:02:07.222Z,10.51
2023-05-17T11:03:07.297Z,10.46
2023-05-17T11:04:07.269Z,10.43
2023-05-17T11:05:07.356Z,10.44
2023-05-17T11:06:12.652Z,10.44
2023-05-17T11:07:08.443Z,10.44
2023-05-17T11:08:07.176Z,10.42
2023-05-17T11:09:07.141Z,10.36
2023-05-17T11:10:07.122Z,10.36
2023-05-17T11:11:07.119Z,10.36
2023-05-17T11:12:07.113Z,10.39
2023-05-17T11:13:07.106Z,10.46
2023-05-17T11:14:07.108Z,10.49
2023-05-17T11:15:08.568Z,10.55
2023-05-17T11:16:07.074Z,10.55
2023-05-17T11:17:07.051Z,10.57
2023-05-17T11:18:13.026Z,10.57
2023-05-17T11:19:07.149Z,10.60
2023-05-17T11:20:07.159Z,10.65
2023-05-17T11:21:07.166Z,10.66
2023-05-17T11:22:07.035Z,10.70
2023-05-17T11:23:07.027Z,10.76
2023-05-17T11:24:07.002Z,10.81
2023-05-17T11:25:07.002Z,10.84
2023-05-17T11:26:15.615Z,10.86
2023-05-17T11:27:07.002Z,10.81
2023-05-17T11:28:06.975Z,10.75
2023-05-17T11:29:06.973Z,10.70
2023-05-17T11:30:07.048Z,10.62
2023-05-17T11:31:06.923Z,10.55
2023-05-17T11:32:06.965Z,10.52
2023-05-17T11:33:13.566Z,10.52
2023-05-17T11:34:07.024Z,10.55
2023-05-17T11:35:06.871Z,10.58
2023-05-17T11:36:06.907Z,10.62
2023-05-17T11:37:06.858Z,10.66
2023-05-17T11:38:06.968Z,10.69
2023-05-17T11:39:08.330Z,10.72
2023-05-17T11:40:07.070Z,10.75
2023-05-17T11:41:10.392Z,10.78
2023-05-17T11:42:06.871Z,10.80
2023-05-17T11:43:06.905Z,10.80
2023-05-17T11:44:06.792Z,10.80
2023-05-17T11:45:06.765Z,10.84
2023-05-17T11:46:06.813Z,10.87
2023-05-17T11:47:06.781Z,10.90
2023-05-17T11:48:06.857Z,10.98
2023-05-17T11:49:06.737Z,11.08
2023-05-17T11:50:06.742Z,11.19
2023-05-17T11:51:06.735Z,11.28
2023-05-17T11:52:06.721Z,11.33
2023-05-17T11:53:06.754Z,11.30
2023-05-17T11:54:06.705Z,11.30
2023-05-17T11:55:06.695Z,11.36
2023-05-17T11:56:06.671Z,11.39
2023-05-17T11:57:06.663Z,11.39
2023-05-17T11:58:06.739Z,11.45
2023-05-17T11:59:06.717Z,11.53
2023-05-17T12:00:06.628Z,11.57
2023-05-17T12:01:06.632Z,11.64
2023-05-17T12:02:06.605Z,11.67
2023-05-17T12:03:06.606Z,11.64
2023-05-17T12:04:06.614Z,11.60
2023-05-17T12:05:06.667Z,11.49
2023-05-17T12:06:06.598Z,11.41
2023-05-17T12:07:06.569Z,11.33
2023-05-17T12:08:06.545Z,11.26
2023-05-17T12:09:06.516Z,11.23
2023-05-17T12:10:06.667Z,11.23
2023-05-17T12:11:07.427Z,11.21
2023-05-17T12:12:06.566Z,11.24
2023-05-17T12:13:06.472Z,11.26
2023-05-17T12:14:06.488Z,11.35
2023-05-17T12:15:06.503Z,11.41
2023-05-17T12:16:06.502Z,11.42
2023-05-17T12:17:06.480Z,11.44
2023-05-17T12:18:06.583Z,11.41
2023-05-17T12:19:06.499Z,11.35
2023-05-17T12:20:06.516Z,11.30
2023-05-17T12:21:06.482Z,11.31
2023-05-17T12:22:06.393Z,11.31
2023-05-17T12:23:06.422Z,11.36
2023-05-17T12:24:06.446Z,11.44
2023-05-17T12:25:06.414Z,11.51
2023-05-17T12:26:06.380Z,11.54
2023-05-17T12:27:06.394Z,11.33
2023-05-17T12:28:06.340Z,10.99
2023-05-17T12:29:06.332Z,10.68
2023-05-17T12:30:06.353Z,10.38
2023-05-17T12:31:06.400Z,10.17
2023-05-17T12:32:06.331Z,9.96
2023-05-17T12:33:06.434Z,9.78
2023-05-17T12:34:07.786Z,9.63
2023-05-17T12:35:06.308Z,9.48
2023-05-17T12:36:06.381Z,9.40
2023-05-17T12:39:38.103Z,9.26
2023-05-17T12:40:47.645Z,9.56
2023-05-17T12:41:45.678Z,9.71
2023-05-17T12:42:38.383Z,9.71
2023-05-17T12:43:38.199Z,9.56
2023-05-17T12:44:38.051Z,9.48
2023-05-17T12:45:38.015Z,9.48
2023-05-17T12:46:38.009Z,9.32
2023-05-17T12:47:38.138Z,9.22
2023-05-17T12:48:38.087Z,9.17
2023-05-17T12:49:38.032Z,9.19
2023-05-17T12:50:37.961Z,9.12
2023-05-17T12:51:37.953Z,9.12
2023-05-17T12:52:37.984Z,9.24
2023-05-17T12:53:37.934Z,9.23
2023-05-17T12:54:37.944Z,9.20
2023-05-17T12:55:37.921Z,9.24
2023-05-17T12:56:37.882Z,9.34
2023-05-17T12:57:37.887Z,9.35
2023-05-17T12:58:37.869Z,9.30
2023-05-17T12:59:37.868Z,9.26
2023-05-17T13:00:37.851Z,9.22
2023-05-17T13:01:37.996Z,9.24
2023-05-17T13:02:37.879Z,9.30
2023-05-17T13:03:38.059Z,9.40
2023-05-17T13:04:37.896Z,9.53
2023-05-17T13:05:37.794Z,9.71
2023-05-17T13:06:37.788Z,9.74
2023-05-17T13:07:37.792Z,9.81
2023-05-17T13:08:37.836Z,9.78
2023-05-17T13:09:37.745Z,9.70
2023-05-17T13:10:37.749Z,9.81
2023-05-17T13:11:37.737Z,9.95
2023-05-17T13:12:37.731Z,10.13
2023-05-17T13:13:37.726Z,10.14
2023-05-17T13:14:37.713Z,9.95
2023-05-17T13:15:37.697Z,9.81
2023-05-17T13:16:37.735Z,9.71
2023-05-17T13:17:37.773Z,9.62